Time;durP1;ratioP1;P1;durP2;ratioP2;P2;SDS_P1;SDS_P2;PMS_P1;PMS_P2;Temp;Humidity;BMP_temperature;BMP_pressure;BME280_temperature;BME280_humidity;BME280_pressure;Samples;Min_cycle;Max_cycle;Signal;HPM_P1;HPM_P2
2022/11/11 00:04:52;;;;;;;14.80;8.37;;;15.80;97.70;;;;;;10480630;28;20075;-26
2022/11/11 00:09:54;;;;;;;16.40;7.53;;;15.60;96.70;;;;;;10477613;28;20048;-32
2022/11/11 00:14:56;;;;;;;12.20;5.93;;;16.70;95.10;;;;;;10473077;28;20100;-27
2022/11/11 00:25:21;;;;;;;18.20;7.82;;;17.10;94.60;;;;;;10472018;28;20820;-27
2022/11/11 00:30:22;;;;;;;13.77;6.32;;;17.10;93.70;;;;;;10479061;28;20047;-30
2022/11/11 00:40:45;;;;;;;5.70;2.75;;;17.20;93.00;;;;;;10472089;28;20080;-27
2022/11/11 00:45:47;;;;;;;8.18;3.90;;;17.00;94.70;;;;;;10471958;28;20424;-28
2022/11/11 00:51:00;;;;;;;3.55;2.80;;;16.20;96.30;;;;;;10474079;28;20131;-32
2022/11/11 00:56:02;;;;;;;3.42;2.30;;;17.20;94.40;;;;;;10469426;28;20054;-26
2022/11/11 01:01:04;;;;;;;6.15;2.20;;;18.00;91.50;;;;;;10472964;28;20300;-26
2022/11/11 01:06:09;;;;;;;7.57;4.25;;;18.80;87.40;;;;;;10464201;28;20052;-29
2022/11/11 01:11:15;;;;;;;7.60;4.68;;;18.20;88.00;;;;;;10489054;28;20114;-32
2022/11/11 01:16:19;;;;;;;16.67;7.28;;;18.10;89.40;;;;;;10478600;28;20099;-25
2022/11/11 01:21:24;;;;;;;6.35;2.67;;;17.60;84.00;;;;;;10477360;28;20044;-28
2022/11/11 01:26:28;;;;;;;14.63;7.78;;;16.80;95.20;;;;;;10503561;28;20481;-28
2022/11/11 01:31:30;;;;;;;6.03;3.17;;;16.10;95.70;;;;;;10498206;28;20048;-28
2022/11/11 01:36:33;;;;;;;12.63;6.77;;;17.40;93.40;;;;;;10501857;28;20481;-27
2022/11/11 01:41:36;;;;;;;17.10;9.43;;;14.80;97.90;;;;;;10501717;28;20083;-27
2022/11/11 01:46:43;;;;;;;13.82;6.45;;;13.90;99.90;;;;;;10476762;28;20055;-28
2022/11/11 01:51:55;;;;;;;20.00;8.60;;;14.70;99.90;;;;;;10489289;28;20098;-28
2022/11/11 01:57:02;;;;;;;25.33;10.77;;;14.80;99.90;;;;;;10472280;28;20056;-26
2022/11/11 02:02:09;;;;;;;24.83;13.68;;;14.20;99.90;;;;;;10480307;28;20048;-31
2022/11/11 02:07:13;;;;;;;20.98;9.93;;;13.40;99.90;;;;;;10468551;28;20045;-29
2022/11/11 02:17:34;;;;;;;23.40;11.40;;;15.80;98.00;;;;;;10461485;28;20132;-28
2022/11/11 02:22:55;;;;;;;4.20;3.13;;;16.60;94.40;;;;;;10477352;28;20134;-27
2022/11/11 02:28:01;;;;;;;10.45;5.60;;;17.10;93.20;;;;;;10481896;28;20296;-28
2022/11/11 02:33:03;;;;;;;13.07;8.00;;;16.60;94.60;;;;;;10482922;28;20135;-31
2022/11/11 02:38:08;;;;;;;11.43;4.03;;;15.30;97.80;;;;;;10485733;28;20555;-25
2022/11/11 02:43:11;;;;;;;22.85;9.85;;;16.30;96.10;;;;;;10485236;28;20467;-27
2022/11/11 02:48:13;;;;;;;23.45;13.02;;;15.30;98.10;;;;;;10485695;28;20133;-31
2022/11/11 02:53:14;;;;;;;17.25;8.73;;;15.20;99.80;;;;;;10471714;28;20212;-28
2022/11/11 02:58:18;;;;;;;19.70;10.60;;;15.70;97.30;;;;;;10483143;28;20505;-28
2022/11/11 03:03:20;;;;;;;26.25;13.18;;;14.60;99.90;;;;;;10473430;28;20052;-27
2022/11/11 03:08:21;;;;;;;11.43;6.32;;;13.70;99.90;;;;;;10472566;28;20120;-27
2022/11/11 03:13:25;;;;;;;18.45;9.55;;;14.80;99.90;;;;;;10478149;28;20592;-27
2022/11/11 03:18:26;;;;;;;22.05;11.30;;;14.20;99.90;;;;;;10477761;28;20045;-29
2022/11/11 03:23:28;;;;;;;14.17;9.03;;;14.50;99.90;;;;;;10495644;28;20055;-29
2022/11/11 03:28:32;;;;;;;17.87;7.53;;;14.60;99.90;;;;;;10477848;28;20067;-27
2022/11/11 03:33:33;;;;;;;13.82;8.10;;;16.60;93.40;;;;;;10503375;28;20044;-27
2022/11/11 03:38:35;;;;;;;14.00;8.02;;;14.10;99.90;;;;;;10500705;28;20053;-27
2022/11/11 03:43:39;;;;;;;24.23;12.47;;;16.20;96.50;;;;;;10510449;28;20110;-27
2022/11/11 03:48:40;;;;;;;13.40;7.53;;;15.80;96.50;;;;;;10492439;28;20074;-26
2022/11/11 03:53:42;;;;;;;12.90;5.50;;;15.70;97.30;;;;;;10495910;28;20141;-27
2022/11/11 03:58:46;;;;;;;15.83;9.10;;;15.40;99.20;;;;;;10493687;28;20053;-29
2022/11/11 04:30:39;;;;;;;4.43;2.72;;;17.40;92.10;;;;;;10494263;28;20040;-32
2022/11/11 04:35:40;;;;;;;11.57;7.70;;;18.20;89.10;;;;;;10489159;28;20102;-27
2022/11/11 04:46:03;;;;;;;5.97;3.28;;;18.10;88.80;;;;;;10495328;28;20169;-33
2022/11/11 04:51:05;;;;;;;6.68;4.20;;;18.00;89.60;;;;;;10494899;28;20052;-29
2022/11/11 05:12:07;;;;;;;6.88;3.40;;;17.40;91.90;;;;;;10503503;28;20484;-29
2022/11/11 05:22:32;;;;;;;6.68;2.50;;;18.00;90.20;;;;;;10492248;28;20048;-29
2022/11/11 05:27:34;;;;;;;6.40;3.50;;;17.30;92.60;;;;;;10476243;28;20133;-32
2022/11/11 05:32:38;;;;;;;5.70;3.40;;;18.10;89.30;;;;;;10468301;28;20072;-31
2022/11/11 05:37:40;;;;;;;15.30;6.93;;;18.10;89.20;;;;;;10478210;28;20488;-28
2022/11/11 05:42:42;;;;;;;12.60;3.63;;;16.40;94.20;;;;;;10468437;28;20456;-29
2022/11/11 05:47:45;;;;;;;5.40;2.85;;;16.40;95.20;;;;;;10481354;28;20955;-28
2022/11/11 05:52:48;;;;;;;15.45;7.00;;;17.00;94.00;;;;;;10474138;28;20068;-30
2022/11/11 05:57:50;;;;;;;4.97;3.20;;;16.70;94.10;;;;;;10475310;28;20052;-28
2022/11/11 06:02:53;;;;;;;12.73;7.27;;;17.10;90.80;;;;;;10467941;28;20048;-28
2022/11/11 06:07:55;;;;;;;8.02;3.63;;;17.20;90.40;;;;;;10471978;28;21448;-28
2022/11/11 06:13:06;;;;;;;11.63;2.80;;;16.70;94.40;;;;;;10479174;28;20045;-28
2022/11/11 06:18:09;;;;;;;5.57;3.17;;;17.90;90.70;;;;;;10472779;28;20049;-28
2022/11/11 06:23:11;;;;;;;13.00;7.97;;;17.60;91.60;;;;;;10460661;28;20056;-28
2022/11/11 06:28:13;;;;;;;6.13;2.70;;;16.90;90.10;;;;;;10470043;28;20554;-34
2022/11/11 06:33:16;;;;;;;5.95;3.60;;;17.90;90.90;;;;;;10462409;28;20487;-31
2022/11/11 06:38:19;;;;;;;8.98;3.80;;;18.30;89.10;;;;;;10471479;28;20140;-30
2022/11/11 06:43:20;;;;;;;7.00;2.55;;;17.60;91.20;;;;;;10465158;28;20059;-30
2022/11/11 06:48:26;;;;;;;4.80;3.42;;;18.80;85.70;;;;;;10470808;28;20178;-28
2022/11/11 06:53:29;;;;;;;10.88;6.10;;;18.20;87.80;;;;;;10456359;28;20045;-29
2022/11/11 06:58:30;;;;;;;6.00;3.20;;;18.80;85.50;;;;;;10459835;28;20079;-29
2022/11/11 07:15:28;;;;;;;4.60;2.72;;;18.50;82.80;;;;;;10535292;27;1662735;-29
2022/11/11 07:20:30;;;;;;;23.65;9.80;;;18.40;88.60;;;;;;10575495;28;20097;-27
2022/11/11 07:25:33;;;;;;;15.65;8.45;;;17.00;84.30;;;;;;10558453;28;20499;-27
2022/11/11 07:30:36;;;;;;;;;;;17.00;91.90;;;;;;10564235;28;20071;-27
2022/11/11 07:35:38;;;;;;;;;;;17.60;91.40;;;;;;10564382;28;19930;-29
2022/11/11 07:40:39;;;;;;;17.67;8.73;;;18.30;84.70;;;;;;10572943;28;19926;-25
2022/11/11 07:45:43;;;;;;;3.97;2.93;;;17.80;86.50;;;;;;10563064;28;20470;-29
2022/11/11 07:50:45;;;;;;;20.40;11.93;;;18.70;85.40;;;;;;10555450;28;20104;-28
2022/11/11 07:55:47;;;;;;;20.55;13.00;;;17.00;85.80;;;;;;10551905;28;20124;-28
2022/11/11 08:00:50;;;;;;;24.00;15.87;;;14.50;99.20;;;;;;10570727;28;20473;-28
2022/11/11 08:05:52;;;;;;;10.85;6.93;;;14.00;99.90;;;;;;10564954;28;20048;-28
2022/11/11 08:10:54;;;;;;;17.13;8.25;;;14.80;98.90;;;;;;10563020;28;20132;-28
2022/11/11 08:15:57;;;;;;;29.05;14.90;;;14.50;99.90;;;;;;10559405;28;20067;-28
2022/11/11 08:20:59;;;;;;;21.08;12.98;;;14.40;98.70;;;;;;10584503;28;20419;-32
2022/11/11 08:26:02;;;;;;;8.47;5.50;;;15.60;94.20;;;;;;10540030;28;20123;-29
2022/11/11 08:31:06;;;;;;;14.77;7.50;;;16.00;96.60;;;;;;10525489;28;20501;-28
2022/11/11 08:36:10;;;;;;;19.27;12.15;;;15.60;94.50;;;;;;10539342;28;20443;-28
2022/11/11 08:41:12;;;;;;;12.88;7.07;;;16.10;90.40;;;;;;10537198;28;20052;-35
2022/11/11 08:46:15;;;;;;;14.60;9.23;;;16.10;96.70;;;;;;10533669;28;20138;-29
2022/11/11 08:51:18;;;;;;;11.85;6.35;;;16.30;95.50;;;;;;10538391;28;20497;-28
2022/11/11 08:56:20;;;;;;;9.52;6.13;;;17.00;93.30;;;;;;10538419;28;20044;-32
2022/11/11 09:01:23;;;;;;;15.80;9.63;;;16.00;95.50;;;;;;10528428;28;20102;-28
2022/11/11 09:06:25;;;;;;;9.40;5.75;;;16.10;95.30;;;;;;10528452;28;20095;-32
2022/11/11 09:11:34;;;;;;;6.97;4.87;;;17.60;90.70;;;;;;10529883;28;20055;-28
2022/11/11 09:16:38;;;;;;;19.13;12.02;;;16.30;96.50;;;;;;10532978;28;20051;-26
2022/11/11 09:21:40;;;;;;;17.95;11.18;;;15.40;96.30;;;;;;10531853;28;20085;-29
2022/11/11 09:26:42;;;;;;;8.98;6.75;;;15.50;94.60;;;;;;10525401;28;20088;-27
2022/11/11 09:31:45;;;;;;;9.33;6.70;;;16.90;91.50;;;;;;10540175;28;20389;-28
2022/11/11 09:36:49;;;;;;;18.33;11.02;;;14.90;99.80;;;;;;10516734;28;20044;-28
2022/11/11 09:41:59;;;;;;;12.40;6.10;;;14.50;98.50;;;;;;10525089;28;20054;-32
2022/11/11 09:47:13;;;;;;;21.05;12.25;;;16.50;95.20;;;;;;10526406;28;20098;-27
2022/11/11 09:52:19;;;;;;;11.32;6.15;;;15.20;94.80;;;;;;10537410;28;20056;-27
2022/11/11 09:57:29;;;;;;;10.90;4.88;;;17.40;91.50;;;;;;10524907;28;20040;-27
2022/11/11 10:02:40;;;;;;;6.05;3.63;;;17.30;91.10;;;;;;10532829;28;20097;-28
2022/11/11 10:07:46;;;;;;;4.90;3.97;;;17.60;91.50;;;;;;10540694;28;20044;-27
2022/11/11 10:12:54;;;;;;;5.32;3.40;;;17.20;92.20;;;;;;10529777;28;20063;-28
2022/11/11 10:18:12;;;;;;;7.80;5.43;;;18.50;85.70;;;;;;10525896;28;20052;-29
2022/11/11 10:23:16;;;;;;;5.05;3.20;;;17.60;90.20;;;;;;10530901;28;20056;-30
2022/11/11 10:28:21;;;;;;;6.68;3.55;;;18.30;87.70;;;;;;10518349;28;20048;-29
2022/11/11 10:33:29;;;;;;;7.50;4.10;;;17.20;92.50;;;;;;10526667;28;20517;-28
2022/11/11 10:38:35;;;;;;;6.18;3.70;;;17.60;85.40;;;;;;10540316;28;20093;-29
2022/11/11 10:43:37;;;;;;;10.50;4.15;;;18.50;84.90;;;;;;10532478;28;20074;-31
2022/11/11 10:48:48;;;;;;;5.27;3.57;;;18.50;84.60;;;;;;10528652;28;20111;-29
2022/11/11 10:54:02;;;;;;;6.95;4.30;;;18.20;84.40;;;;;;10524616;28;20581;-28
2022/11/11 10:59:11;;;;;;;6.05;2.92;;;18.60;82.10;;;;;;10519510;28;20450;-28
2022/11/11 11:04:22;;;;;;;3.78;2.60;;;18.80;82.40;;;;;;10532531;28;20145;-30
2022/11/11 11:09:30;;;;;;;7.60;6.13;;;19.00;78.10;;;;;;10537747;28;20101;-27
2022/11/11 11:14:36;;;;;;;4.75;2.92;;;18.70;81.90;;;;;;10518561;28;20052;-30
2022/11/11 11:19:39;;;;;;;5.35;3.38;;;18.90;81.60;;;;;;10537811;28;20052;-28
2022/11/11 11:24:41;;;;;;;12.32;7.57;;;19.20;79.60;;;;;;10532666;28;20047;-28
2022/11/11 11:29:45;;;;;;;6.90;4.68;;;18.40;84.20;;;;;;10522863;28;20136;-31
2022/11/11 11:34:50;;;;;;;8.68;4.63;;;18.80;82.20;;;;;;10530990;28;20080;-30
2022/11/11 11:40:00;;;;;;;5.00;2.65;;;19.10;80.60;;;;;;10533491;28;20051;-29
2022/11/11 11:45:17;;;;;;;8.23;5.18;;;19.30;79.10;;;;;;10542132;28;20072;-28
2022/11/11 11:50:42;;;;;;;8.98;4.53;;;19.20;79.10;;;;;;10539174;28;20078;-28
2022/11/11 11:55:48;;;;;;;21.95;13.77;;;18.70;83.80;;;;;;10527664;28;20079;-29
2022/11/11 12:00:59;;;;;;;7.47;4.30;;;18.00;85.90;;;;;;10532181;28;20079;-30
2022/11/11 12:06:09;;;;;;;7.95;4.53;;;19.20;80.40;;;;;;10539125;28;20051;-26
2022/11/11 12:11:18;;;;;;;6.57;5.20;;;19.20;79.50;;;;;;10532850;28;20048;-27
2022/11/11 12:16:26;;;;;;;6.95;4.60;;;19.20;80.80;;;;;;10541996;28;20076;-29
2022/11/11 12:21:38;;;;;;;12.88;7.55;;;19.40;78.90;;;;;;10529909;28;20066;-30
2022/11/11 12:26:49;;;;;;;8.82;5.40;;;19.20;79.60;;;;;;10520727;28;20037;-28
2022/11/11 12:32:07;;;;;;;12.63;7.90;;;19.30;78.40;;;;;;10519430;28;20095;-28
2022/11/11 12:37:21;;;;;;;20.15;10.63;;;19.30;78.90;;;;;;10563266;28;20074;-27
2022/11/11 12:42:39;;;;;;;20.77;13.00;;;18.00;87.30;;;;;;10522092;28;20124;-28
2022/11/11 12:47:48;;;;;;;18.23;11.35;;;17.80;89.50;;;;;;10529030;28;20083;-30
2022/11/11 12:53:04;;;;;;;12.02;7.47;;;17.20;91.20;;;;;;10535692;28;20541;-32
2022/11/11 12:58:19;;;;;;;20.08;12.07;;;17.20;90.90;;;;;;10543172;28;20499;-28
2022/11/11 13:03:34;;;;;;;9.23;6.15;;;17.10;89.90;;;;;;10532982;28;20173;-29
2022/11/11 13:08:59;;;;;;;14.45;9.98;;;18.90;82.90;;;;;;10540200;28;20130;-25
2022/11/11 13:14:23;;;;;;;11.73;7.30;;;18.20;87.30;;;;;;10534681;28;20509;-28
2022/11/11 13:19:32;;;;;;;18.55;10.32;;;18.30;87.60;;;;;;10532949;28;20106;-29
2022/11/11 13:24:36;;;;;;;6.38;5.40;;;17.90;88.70;;;;;;10527688;28;20040;-29
2022/11/11 13:30:03;;;;;;;7.88;6.38;;;18.30;90.40;;;;;;10529694;28;20048;-31
2022/11/11 13:35:18;;;;;;;14.60;8.10;;;17.70;89.40;;;;;;10530304;28;20120;-30
2022/11/11 13:40:37;;;;;;;8.55;5.85;;;17.90;83.80;;;;;;10542486;28;20048;-30
2022/11/11 13:45:41;;;;;;;6.82;4.50;;;18.60;87.50;;;;;;10531778;28;20094;-28
2022/11/11 13:50:43;;;;;;;8.23;4.75;;;19.30;85.10;;;;;;10532821;28;20134;-27
2022/11/11 13:55:47;;;;;;;10.98;5.15;;;19.40;83.70;;;;;;10527393;28;20047;-32
2022/11/11 14:00:59;;;;;;;8.23;4.20;;;19.80;75.00;;;;;;10540610;28;20048;-28
2022/11/11 14:06:29;;;;;;;7.20;4.13;;;20.00;79.70;;;;;;10519625;28;20052;-28
2022/11/11 14:11:34;;;;;;;6.38;3.53;;;20.10;79.40;;;;;;10530579;28;20391;-29
2022/11/11 14:17:00;;;;;;;5.25;3.60;;;20.20;78.00;;;;;;10525153;28;20087;-27
2022/11/11 14:22:03;;;;;;;4.75;3.25;;;20.30;77.50;;;;;;10543708;28;20101;-28
2022/11/11 14:27:16;;;;;;;9.10;5.00;;;20.40;76.80;;;;;;10532190;28;20485;-32
2022/11/11 14:32:39;;;;;;;6.20;3.30;;;20.30;77.50;;;;;;10538429;28;20101;-29
2022/11/11 14:37:56;;;;;;;4.78;3.10;;;20.40;76.90;;;;;;10526458;28;20044;-31
2022/11/11 14:43:00;;;;;;;5.28;2.78;;;20.50;76.80;;;;;;10520364;28;20079;-31
2022/11/11 14:48:02;;;;;;;5.85;3.08;;;20.50;76.60;;;;;;10521994;28;20490;-33
2022/11/11 14:53:14;;;;;;;3.58;2.53;;;20.60;76.30;;;;;;10527838;28;20588;-30
2022/11/11 14:58:20;;;;;;;5.03;2.80;;;20.60;76.60;;;;;;10526189;28;20143;-30
2022/11/11 15:03:28;;;;;;;9.98;2.63;;;20.60;76.30;;;;;;10525235;28;20106;-31
2022/11/11 15:08:37;;;;;;;7.68;3.42;;;20.60;76.10;;;;;;10530966;28;20122;-32
2022/11/11 15:14:18;;;;;;;9.52;2.97;;;20.60;76.40;;;;;;10532699;28;20131;-27
2022/11/11 15:19:45;;;;;;;3.15;2.30;;;20.60;76.40;;;;;;10478662;28;20044;-32
2022/11/11 15:24:57;;;;;;;4.30;2.00;;;20.80;78.10;;;;;;10515136;28;20056;-29
2022/11/11 15:30:13;;;;;;;29.95;9.50;;;20.80;76.10;;;;;;10526989;28;20189;-30
2022/11/11 15:35:31;;;;;;;51.63;14.68;;;20.80;76.20;;;;;;10536035;28;20599;-29
2022/11/11 15:40:45;;;;;;;49.10;15.07;;;20.80;76.50;;;;;;10550275;28;20052;-29
2022/11/11 15:45:52;;;;;;;34.80;11.55;;;20.80;76.50;;;;;;10527342;28;20075;-27
2022/11/11 15:50:54;;;;;;;29.23;9.15;;;20.80;76.80;;;;;;10529384;28;20051;-28
2022/11/11 15:55:59;;;;;;;25.67;7.22;;;20.80;76.30;;;;;;10536764;28;20139;-27
2022/11/11 16:01:06;;;;;;;25.10;6.15;;;20.80;76.30;;;;;;10540792;28;20119;-27
2022/11/11 16:06:10;;;;;;;11.93;4.45;;;20.90;76.10;;;;;;10534255;28;20144;-28
2022/11/11 16:11:15;;;;;;;9.55;3.90;;;20.90;76.10;;;;;;10528389;28;20052;-28
2022/11/11 16:16:22;;;;;;;8.95;3.60;;;20.80;75.70;;;;;;10529750;28;20474;-28
2022/11/11 16:21:30;;;;;;;11.07;3.47;;;20.80;75.40;;;;;;10527056;28;20580;-30
2022/11/11 16:26:33;;;;;;;6.75;3.10;;;20.80;75.20;;;;;;10537033;28;20135;-27
2022/11/11 16:31:41;;;;;;;6.53;2.92;;;20.80;75.00;;;;;;10530287;28;20453;-30
2022/11/11 16:36:58;;;;;;;5.57;2.30;;;20.80;75.00;;;;;;10521608;28;20052;-29
2022/11/11 16:42:02;;;;;;;5.93;2.25;;;20.80;73.90;;;;;;10520702;28;20128;-30
2022/11/11 16:47:06;;;;;;;5.20;2.60;;;20.90;73.70;;;;;;10524417;28;20477;-28
2022/11/11 16:52:12;;;;;;;6.43;2.80;;;20.80;73.50;;;;;;10528033;28;20102;-28
2022/11/11 16:57:17;;;;;;;6.07;2.22;;;20.80;73.30;;;;;;10530386;28;20048;-32
2022/11/11 17:02:23;;;;;;;5.25;2.38;;;20.80;72.90;;;;;;10507673;28;20051;-28
2022/11/11 17:07:31;;;;;;;6.57;2.70;;;20.80;72.90;;;;;;10523456;28;20048;-27
2022/11/11 17:12:33;;;;;;;8.10;2.47;;;20.70;72.70;;;;;;10531770;28;20055;-29
2022/11/11 17:17:37;;;;;;;13.77;2.92;;;20.80;72.80;;;;;;10521301;28;20106;-29
2022/11/11 17:22:46;;;;;;;7.85;2.85;;;20.70;73.10;;;;;;10520514;28;20048;-30
2022/11/11 17:27:48;;;;;;;5.85;2.80;;;20.70;73.60;;;;;;10530898;28;20072;-34
2022/11/11 17:32:52;;;;;;;8.15;2.97;;;20.70;74.10;;;;;;10532530;28;20048;-29
2022/11/11 17:37:53;;;;;;;10.63;2.92;;;20.70;74.30;;;;;;10529088;28;20397;-31
2022/11/11 17:42:55;;;;;;;7.90;2.70;;;20.80;74.10;;;;;;10555188;28;20109;-34
2022/11/11 17:47:59;;;;;;;6.78;2.40;;;20.80;74.40;;;;;;10532702;28;20063;-28
2022/11/11 17:53:01;;;;;;;7.50;3.03;;;20.70;75.00;;;;;;10532507;28;20052;-27
2022/11/11 17:58:03;;;;;;;9.70;2.83;;;20.80;76.60;;;;;;10548317;28;20134;-32
2022/11/11 18:03:06;;;;;;;7.22;2.70;;;20.90;75.60;;;;;;10514297;28;20068;-29
2022/11/11 18:08:08;;;;;;;8.18;2.85;;;20.80;75.60;;;;;;10531103;28;20043;-30
2022/11/11 18:13:10;;;;;;;8.63;2.65;;;20.70;75.70;;;;;;10536374;28;20100;-29
2022/11/11 18:18:13;;;;;;;11.80;2.50;;;20.70;76.10;;;;;;10545486;28;20493;-29
2022/11/11 18:23:15;;;;;;;15.05;2.90;;;20.70;75.90;;;;;;10529715;28;20067;-28
2022/11/11 18:28:17;;;;;;;8.75;2.85;;;20.70;76.10;;;;;;10520989;28;20049;-29
2022/11/11 18:33:20;;;;;;;5.38;2.80;;;20.70;76.30;;;;;;10505877;28;20041;-28
2022/11/11 18:38:23;;;;;;;11.07;3.13;;;20.70;75.80;;;;;;10521822;28;20040;-33
2022/11/11 18:43:25;;;;;;;8.43;3.03;;;20.70;75.50;;;;;;10525275;28;20036;-29
2022/11/11 18:48:28;;;;;;;8.65;2.88;;;20.70;75.90;;;;;;10505957;28;20044;-31
2022/11/11 18:53:31;;;;;;;9.98;2.85;;;20.60;76.40;;;;;;10524289;28;20052;-29
2022/11/11 18:58:34;;;;;;;6.97;2.50;;;20.50;77.00;;;;;;10513176;28;20131;-29
2022/11/11 19:03:39;;;;;;;11.40;2.60;;;20.50;76.80;;;;;;10526855;28;20117;-28
2022/11/11 19:08:42;;;;;;;5.72;2.70;;;20.50;77.10;;;;;;10525818;28;20043;-29
2022/11/11 19:13:44;;;;;;;6.07;2.22;;;20.50;77.10;;;;;;10522521;28;20062;-29
2022/11/11 19:18:47;;;;;;;3.58;2.53;;;20.50;77.30;;;;;;10525142;28;20051;-29
2022/11/11 19:23:51;;;;;;;4.47;2.58;;;20.40;77.60;;;;;;10522154;28;20101;-29
2022/11/11 19:28:54;;;;;;;6.90;2.58;;;20.50;77.70;;;;;;10514851;28;20087;-31
2022/11/11 19:33:57;;;;;;;;;;;20.40;77.80;;;;;;10522549;28;20131;-28
2022/11/11 19:39:01;;;;;;;6.18;2.30;;;20.40;78.10;;;;;;10520495;28;20513;-30
2022/11/11 19:44:03;;;;;;;5.25;2.22;;;20.40;78.10;;;;;;10523236;28;20044;-34
2022/11/11 19:49:06;;;;;;;;;;;20.40;78.10;;;;;;10514050;28;20052;-32
2022/11/11 19:54:10;;;;;;;3.55;2.25;;;20.40;78.20;;;;;;10514126;28;20300;-28
2022/11/11 19:59:13;;;;;;;8.27;1.80;;;20.30;78.60;;;;;;10524312;28;20099;-33
2022/11/11 20:04:16;;;;;;;6.75;2.50;;;20.30;78.40;;;;;;10524032;28;20098;-28
2022/11/11 20:09:19;;;;;;;4.60;2.08;;;20.30;78.30;;;;;;10520511;28;20133;-35
2022/11/11 20:14:20;;;;;;;6.03;2.30;;;20.40;78.40;;;;;;10528839;28;20160;-34
2022/11/11 20:19:24;;;;;;;5.75;2.38;;;20.30;78.30;;;;;;10516373;28;20055;-34
2022/11/11 20:24:26;;;;;;;4.30;2.30;;;20.30;76.20;;;;;;10523641;28;20398;-29
2022/11/11 20:29:28;;;;;;;8.20;2.63;;;20.40;77.40;;;;;;10528141;28;20068;-28
2022/11/11 20:34:33;;;;;;;10.15;2.20;;;20.40;76.90;;;;;;10520134;28;20109;-29
2022/11/11 20:39:34;;;;;;;10.40;3.15;;;20.30;77.00;;;;;;10523591;28;20059;-29
2022/11/11 20:44:37;;;;;;;7.80;2.80;;;20.00;79.00;;;;;;10523334;28;20056;-29
2022/11/11 20:49:41;;;;;;;;;;;20.10;78.10;;;;;;10535662;28;20105;-28
2022/11/11 20:54:43;;;;;;;7.35;3.25;;;19.90;80.40;;;;;;10519816;28;19923;-29
2022/11/11 20:59:44;;;;;;;6.47;2.20;;;19.80;80.10;;;;;;10522060;28;20485;-31
2022/11/11 21:04:48;;;;;;;2.83;2.03;;;19.80;80.10;;;;;;10517907;28;20477;-28
2022/11/11 21:09:49;;;;;;;4.68;2.35;;;20.10;77.60;;;;;;10528682;28;20497;-30
2022/11/11 21:14:51;;;;;;;8.43;2.45;;;20.10;77.40;;;;;;10520871;28;20494;-29
2022/11/11 21:19:56;;;;;;;9.23;2.42;;;20.10;77.30;;;;;;10523199;28;20130;-29
2022/11/11 21:24:58;;;;;;;6.72;2.75;;;20.10;76.80;;;;;;10522284;28;20052;-28
2022/11/11 21:30:00;;;;;;;8.63;2.80;;;20.20;76.30;;;;;;10515762;28;20470;-30
2022/11/11 21:35:04;;;;;;;12.27;3.00;;;20.20;76.30;;;;;;10525944;28;20059;-26
2022/11/11 21:40:08;;;;;;;8.43;3.25;;;20.20;76.50;;;;;;10532651;28;20068;-29
2022/11/11 21:45:10;;;;;;;10.48;3.85;;;20.10;76.70;;;;;;10527715;28;20044;-28
2022/11/11 21:50:14;;;;;;;6.65;2.45;;;20.00;76.80;;;;;;10517413;28;20090;-31
2022/11/11 21:55:16;;;;;;;5.25;2.58;;;19.90;75.90;;;;;;10516836;28;20475;-30
2022/11/11 22:00:18;;;;;;;8.88;2.55;;;19.80;78.10;;;;;;10529730;28;20140;-29
2022/11/11 22:05:21;;;;;;;7.07;3.63;;;19.80;78.30;;;;;;10521284;28;20067;-29
2022/11/11 22:10:23;;;;;;;3.90;2.22;;;19.70;78.60;;;;;;10544718;28;20089;-30
2022/11/11 22:15:25;;;;;;;5.45;2.50;;;19.80;77.30;;;;;;10529849;28;20060;-29
2022/11/11 22:20:29;;;;;;;6.78;2.38;;;19.90;77.20;;;;;;10517021;28;20536;-30
2022/11/11 22:25:31;;;;;;;6.15;3.55;;;19.80;75.60;;;;;;10521723;28;20051;-28
2022/11/11 22:30:33;;;;;;;11.38;2.40;;;19.60;75.50;;;;;;10523098;28;20047;-26
2022/11/11 22:35:36;;;;;;;;;;;19.40;79.80;;;;;;10535904;28;20455;-30
2022/11/11 22:40:38;;;;;;;8.55;2.83;;;19.40;79.70;;;;;;10524858;28;19959;-29
2022/11/11 22:45:41;;;;;;;9.10;2.45;;;19.40;80.00;;;;;;10507288;28;20044;-29
2022/11/11 22:50:44;;;;;;;7.30;2.38;;;19.60;77.90;;;;;;10514194;28;20094;-28
2022/11/11 22:55:46;;;;;;;13.07;3.05;;;19.70;77.10;;;;;;10506529;28;20446;-29
2022/11/11 23:00:48;;;;;;;4.88;2.67;;;19.70;77.30;;;;;;10525157;28;20111;-29
2022/11/11 23:05:51;;;;;;;5.22;2.50;;;19.70;77.10;;;;;;10515556;28;20051;-30
2022/11/11 23:10:53;;;;;;;8.23;2.55;;;19.70;76.80;;;;;;10519120;28;20050;-28
2022/11/11 23:15:55;;;;;;;4.68;2.53;;;19.70;76.90;;;;;;10515459;28;20121;-29
2022/11/11 23:21:01;;;;;;;5.40;2.90;;;19.70;77.50;;;;;;10529146;28;20039;-31
2022/11/11 23:26:05;;;;;;;6.03;3.25;;;19.60;76.80;;;;;;10515511;28;20651;-32
2022/11/11 23:31:08;;;;;;;6.32;2.75;;;19.70;76.80;;;;;;10524120;28;20079;-29
2022/11/11 23:36:13;;;;;;;4.65;3.05;;;19.60;76.70;;;;;;10520018;28;20098;-32
2022/11/11 23:41:15;;;;;;;5.13;2.65;;;19.60;76.50;;;;;;10503980;28;20106;-31
2022/11/11 23:46:17;;;;;;;4.82;2.78;;;19.60;76.60;;;;;;10523171;28;20135;-29
2022/11/11 23:51:20;;;;;;;5.50;2.97;;;19.60;76.70;;;;;;10535218;28;20544;-29
2022/11/11 23:56:22;;;;;;;4.15;2.88;;;19.60;76.70;;;;;;10528941;28;20131;-31
